createdAt,value
2023-01-20T00:02:03.543Z,99736.66
2023-01-20T00:04:36.737Z,99739.38
2023-01-20T00:07:08.581Z,99741.69
2023-01-20T00:09:36.730Z,99743.59
2023-01-20T00:12:12.554Z,99743.97
2023-01-20T00:14:40.791Z,99742.91
2023-01-20T00:17:14.480Z,99747.75
2023-01-20T00:19:44.092Z,99746.28
2023-01-20T00:22:12.270Z,99747.94
2023-01-20T00:24:43.150Z,99751.28
2023-01-20T00:27:21.261Z,99762.19
2023-01-20T00:29:49.511Z,99757.13
2023-01-20T00:32:22.487Z,99764.66
2023-01-20T00:34:58.564Z,99760.47
2023-01-20T00:37:36.766Z,99760.91
2023-01-20T00:40:10.054Z,99762.59
2023-01-20T00:42:41.226Z,99766.16
2023-01-20T00:45:15.176Z,99761.53
2023-01-20T00:47:44.024Z,99777.03
2023-01-20T00:50:12.220Z,99775.56
2023-01-20T00:52:43.866Z,99774.72
2023-01-20T00:55:15.056Z,99786.47
2023-01-20T00:57:53.830Z,99786.47
2023-01-20T01:00:23.926Z,99792.97
2023-01-20T01:02:54.983Z,99796.09
2023-01-20T01:05:23.467Z,99794.81
2023-01-20T01:07:56.447Z,99802.16
2023-01-20T01:10:27.909Z,99806.13
2023-01-20T01:13:01.427Z,99814.28
2023-01-20T01:15:32.405Z,99815.31
2023-01-20T01:18:09.736Z,99813.66
2023-01-20T01:20:40.368Z,99819.09
2023-01-20T01:23:08.641Z,99822.22
2023-01-20T01:25:41.749Z,99826.84
2023-01-20T01:28:22.004Z,99824.13
2023-01-20T01:33:45.785Z,99831.00
2023-01-20T01:36:16.731Z,99843.78
2023-01-20T01:38:57.697Z,99845.03
2023-01-20T01:41:27.837Z,99848.81
2023-01-20T01:44:01.754Z,99842.72
2023-01-20T01:46:37.330Z,99849.63
2023-01-20T01:49:13.151Z,99857.16
2023-01-20T01:51:52.883Z,99852.75
2023-01-20T01:54:28.441Z,99855.50
2023-01-20T01:56:59.957Z,99853.38
2023-01-20T01:59:33.499Z,99858.22
2023-01-20T02:02:09.384Z,99861.31
2023-01-20T02:04:44.480Z,99860.84
2023-01-20T02:07:16.047Z,99863.84
2023-01-20T02:09:49.545Z,99870.13
2023-01-20T02:12:31.027Z,99866.56
2023-01-20T02:15:01.777Z,99881.88
2023-01-20T02:17:30.137Z,99876.22
2023-01-20T02:20:00.064Z,99877.28
2023-01-20T02:22:34.695Z,99878.13
2023-01-20T02:25:11.166Z,99885.47
2023-01-20T02:27:43.834Z,99882.72
2023-01-20T02:30:14.373Z,99882.72
2023-01-20T02:32:45.719Z,99884.41
2023-01-20T02:35:22.418Z,99881.03
2023-01-20T02:37:54.137Z,99891.91
2023-01-20T02:40:32.453Z,99901.97
2023-01-20T02:43:01.655Z,99895.84
2023-01-20T02:45:36.734Z,99911.22
2023-01-20T02:48:04.890Z,99903.19
2023-01-20T02:50:33.488Z,99901.50
2023-01-20T02:53:05.751Z,99905.25
2023-01-20T02:55:39.758Z,99906.31
2023-01-20T02:58:15.925Z,99907.34
2023-01-20T03:00:44.684Z,99914.00
2023-01-20T03:03:16.057Z,99906.72
2023-01-20T03:05:44.439Z,99909.63
2023-01-20T03:08:18.327Z,99915.25
2023-01-20T03:10:49.495Z,99917.97
2023-01-20T03:13:17.330Z,99915.25
2023-01-20T03:15:45.155Z,99921.75
2023-01-20T03:18:13.036Z,99926.16
2023-01-20T03:20:40.815Z,99926.34
2023-01-20T03:23:08.621Z,99921.09
2023-01-20T03:25:36.403Z,99932.81
2023-01-20T03:28:04.238Z,99924.44
2023-01-20T03:30:32.146Z,99934.84
2023-01-20T03:33:00.012Z,99937.56
2023-01-20T03:35:27.784Z,99939.66
2023-01-20T03:37:55.574Z,99948.22
2023-01-20T03:40:23.413Z,99943.81
2023-01-20T03:42:52.718Z,99956.78
2023-01-20T03:45:20.544Z,99956.78
2023-01-20T03:47:48.359Z,99960.53
2023-01-20T03:50:16.154Z,99951.31
2023-01-20T03:52:47.756Z,99958.66
2023-01-20T03:55:16.846Z,99963.25
2023-01-20T03:57:44.856Z,99961.78
2023-01-20T04:00:12.612Z,99963.44
2023-01-20T04:02:40.428Z,99970.78
2023-01-20T04:05:08.394Z,99967.00
2023-01-20T04:07:36.215Z,99971.78
2023-01-20T04:10:03.982Z,99973.03
2023-01-20T04:12:31.730Z,99971.16
2023-01-20T04:14:59.526Z,99969.47
2023-01-20T04:17:27.370Z,99974.06
2023-01-20T04:19:55.219Z,99975.13
2023-01-20T04:22:22.954Z,99983.28
2023-01-20T04:24:50.723Z,99979.34
2023-01-20T04:27:18.518Z,99990.22
2023-01-20T04:29:46.321Z,99987.50
2023-01-20T04:32:14.099Z,99987.28
2023-01-20T04:34:41.923Z,99984.97
2023-01-20T04:37:09.748Z,99992.94
2023-01-20T04:39:37.567Z,99990.22
2023-01-20T04:42:05.408Z,99997.34
2023-01-20T04:44:33.274Z,100001.97
2023-01-20T04:47:01.149Z,99998.56
2023-01-20T04:49:28.907Z,100007.78
2023-01-20T04:51:56.708Z,100012.38
2023-01-20T04:54:24.536Z,100015.09
2023-01-20T04:56:52.369Z,100011.75
2023-01-20T04:59:20.400Z,100017.38
2023-01-20T05:01:48.373Z,100022.63
2023-01-20T05:04:16.259Z,100025.53
2023-01-20T05:06:45.169Z,100025.53
2023-01-20T05:09:12.967Z,100035.59
2023-01-20T05:11:40.825Z,100033.03
2023-01-20T05:14:08.591Z,100039.53
2023-01-20T05:16:36.431Z,100036.16
2023-01-20T05:19:04.221Z,100037.66
2023-01-20T05:21:32.028Z,100046.03
2023-01-20T05:23:59.819Z,100050.59
2023-01-20T05:26:27.622Z,100049.31
2023-01-20T05:28:55.391Z,100058.50
2023-01-20T05:31:23.227Z,100060.59
2023-01-20T05:33:51.064Z,100061.59
2023-01-20T05:36:18.852Z,100057.38
2023-01-20T05:38:46.657Z,100061.81
2023-01-20T05:41:14.491Z,100068.25
2023-01-20T05:43:42.280Z,100070.31
2023-01-20T05:46:10.197Z,100069.31
2023-01-20T05:48:38.037Z,100070.53
2023-01-20T05:51:05.863Z,100068.81
2023-01-20T05:53:33.668Z,100075.97
2023-01-20T05:56:02.014Z,100083.94
2023-01-20T05:58:29.834Z,100082.25
2023-01-20T06:00:57.670Z,100077.66
2023-01-20T06:03:25.453Z,100080.38
2023-01-20T06:05:53.297Z,100079.34
2023-01-20T06:08:21.173Z,100091.09
2023-01-20T06:10:50.576Z,100090.25
2023-01-20T06:13:18.436Z,100089.38
2023-01-20T06:15:46.248Z,100093.81
2023-01-20T06:18:14.131Z,100100.09
2023-01-20T06:20:41.975Z,100102.81
2023-01-20T06:23:09.738Z,100101.13
2023-01-20T06:25:37.492Z,100112.03
2023-01-20T06:28:05.291Z,100108.63
2023-01-20T06:30:33.062Z,100113.25
2023-01-20T06:33:00.856Z,100119.53
2023-01-20T06:35:28.631Z,100116.97
2023-01-20T06:37:56.427Z,100128.69
2023-01-20T06:40:24.185Z,100128.69
2023-01-20T06:42:51.996Z,100146.06
2023-01-20T06:45:19.758Z,100142.69
2023-01-20T06:47:47.488Z,100148.34
2023-01-20T06:50:15.273Z,100156.66
2023-01-20T06:52:43.037Z,100156.66
2023-01-20T06:55:10.791Z,100156.66
2023-01-20T06:57:38.521Z,100166.50
2023-01-20T07:00:06.279Z,100169.22
2023-01-20T07:02:34.100Z,100172.16
2023-01-20T07:05:02.592Z,100172.16
2023-01-20T07:07:30.370Z,100175.06
2023-01-20T07:09:58.821Z,100178.81
2023-01-20T07:12:26.589Z,100177.97
2023-01-20T07:14:54.376Z,100189.69
2023-01-20T07:17:22.152Z,100185.31
2023-01-20T07:19:49.976Z,100187.16
2023-01-20T07:22:17.710Z,100188.88
2023-01-20T07:24:45.509Z,100193.63
2023-01-20T07:27:15.085Z,100197.41
2023-01-20T07:29:43.059Z,100198.25
2023-01-20T07:32:10.874Z,100211.84
2023-01-20T07:34:38.639Z,100203.84
2023-01-20T07:37:06.379Z,100206.41
2023-01-20T07:39:36.285Z,100210.13
2023-01-20T07:42:04.112Z,100213.53
2023-01-20T07:44:32.151Z,100209.41
2023-01-20T07:46:59.938Z,100213.16
2023-01-20T07:49:27.772Z,100213.66
2023-01-20T07:51:55.611Z,100212.44
2023-01-20T07:54:23.413Z,100216.66
2023-01-20T07:56:51.228Z,100213.06
2023-01-20T07:59:19.047Z,100218.72
2023-01-20T08:01:46.979Z,100222.28
2023-01-20T08:04:14.790Z,100224.63
2023-01-20T08:06:42.581Z,100224.44
2023-01-20T08:09:12.328Z,100227.16
2023-01-20T08:11:40.281Z,100228.38
2023-01-20T08:14:08.118Z,100232.13
2023-01-20T08:16:36.005Z,100238.44
2023-01-20T08:19:03.783Z,100251.84
2023-01-20T08:21:31.807Z,100241.78
2023-01-20T08:23:59.610Z,100245.72
2023-01-20T08:26:28.292Z,100252.03
2023-01-20T08:28:56.269Z,100259.16
2023-01-20T08:31:24.265Z,100264.78
2023-01-20T08:33:52.136Z,100262.25
2023-01-20T08:36:19.937Z,100271.44
2023-01-20T08:38:47.963Z,100276.88
2023-01-20T08:41:15.755Z,100279.78
2023-01-20T08:43:43.571Z,100277.91
2023-01-20T08:46:11.401Z,100281.69
2023-01-20T08:48:39.303Z,100279.78
2023-01-20T08:51:07.731Z,100286.44
2023-01-20T08:53:35.644Z,100287.00
2023-01-20T08:56:03.454Z,100293.47
2023-01-20T08:58:31.296Z,100295.53
2023-01-20T09:00:59.257Z,100300.97
2023-01-20T09:03:27.122Z,100298.25
2023-01-20T09:05:54.908Z,100299.28
2023-01-20T09:08:26.990Z,100302.66
2023-01-20T09:10:57.573Z,100307.09
2023-01-20T09:13:25.440Z,100322.19
2023-01-20T09:15:53.248Z,100319.66
2023-01-20T09:18:21.062Z,100320.69
2023-01-20T09:20:48.965Z,100326.13
2023-01-20T09:23:16.814Z,100329.84
2023-01-20T09:25:44.624Z,100337.84
2023-01-20T09:28:14.318Z,100335.13
2023-01-20T09:30:44.619Z,100344.13
2023-01-20T09:33:12.649Z,100348.38
2023-01-20T09:35:40.408Z,100352.13
2023-01-20T09:38:25.849Z,100354.66
2023-01-20T09:41:10.952Z,100360.09
2023-01-20T09:43:56.933Z,100355.31
2023-01-20T09:46:24.723Z,100363.72
2023-01-20T09:49:09.926Z,100357.94
2023-01-20T09:51:55.043Z,100358.78
2023-01-20T09:54:22.810Z,100363.53
2023-01-20T09:56:51.928Z,100357.28
2023-01-20T09:59:19.754Z,100366.47
2023-01-20T10:01:47.568Z,100364.91
2023-01-20T10:04:15.623Z,100375.56
2023-01-20T10:06:43.401Z,100375.16
2023-01-20T10:09:11.171Z,100375.66
2023-01-20T10:11:39.009Z,100384.78
2023-01-20T10:14:06.896Z,100380.22
2023-01-20T10:16:34.657Z,100372.94
2023-01-20T10:19:02.398Z,100385.59
2023-01-20T10:21:30.356Z,100380.38
2023-01-20T10:23:58.092Z,100390.75
2023-01-20T10:26:25.871Z,100382.19
2023-01-20T10:28:53.628Z,100385.84
2023-01-20T10:31:21.400Z,100379.88
2023-01-20T10:33:49.197Z,100375.16
2023-01-20T10:36:16.961Z,100388.88
2023-01-20T10:38:44.695Z,100386.91
2023-01-20T10:41:14.613Z,100389.53
2023-01-20T10:43:43.401Z,100387.34
2023-01-20T10:46:12.557Z,100384.50
2023-01-20T10:48:40.454Z,100384.22
2023-01-20T10:51:13.440Z,100381.22
2023-01-20T10:53:41.274Z,100377.72
2023-01-20T10:56:09.087Z,100383.50
2023-01-20T10:58:36.936Z,100387.00
2023-01-20T11:01:04.715Z,100382.09
2023-01-20T11:03:32.504Z,100380.41
2023-01-20T11:06:00.246Z,100386.84
2023-01-20T11:08:28.029Z,100385.56
2023-01-20T11:10:55.860Z,100398.31
2023-01-20T11:13:23.697Z,100394.94
2023-01-20T11:15:52.157Z,100400.75
2023-01-20T11:18:19.987Z,100404.69
2023-01-20T11:20:47.912Z,100406.56
2023-01-20T11:23:15.716Z,100397.72
2023-01-20T11:25:43.550Z,100402.31
2023-01-20T11:28:11.382Z,100404.84
2023-01-20T11:30:39.187Z,100406.91
2023-01-20T11:33:07.044Z,100404.75
2023-01-20T11:35:34.814Z,100411.03
2023-01-20T11:38:02.629Z,100414.44
2023-01-20T11:40:30.424Z,100414.59
2023-01-20T11:42:58.277Z,100415.44
2023-01-20T11:45:26.085Z,100417.31
2023-01-20T11:47:53.909Z,100416.47
2023-01-20T11:50:21.658Z,100412.72
2023-01-20T11:52:49.456Z,100423.59
2023-01-20T11:55:17.294Z,100422.59
2023-01-20T11:57:45.456Z,100419.56
2023-01-20T12:00:14.050Z,100415.13
2023-01-20T12:02:42.156Z,100426.69
2023-01-20T12:05:09.934Z,100415.81
2023-01-20T12:07:37.700Z,100430.25
2023-01-20T12:10:08.670Z,100422.44
2023-01-20T12:12:36.441Z,100429.59
2023-01-20T12:15:04.698Z,100425.34
2023-01-20T12:17:32.474Z,100432.00
2023-01-20T12:20:00.415Z,100432.19
2023-01-20T12:22:28.145Z,100430.47
2023-01-20T12:25:11.661Z,100438.66
2023-01-20T12:27:39.408Z,100438.00
2023-01-20T12:30:07.183Z,100443.44
2023-01-20T12:32:34.940Z,100445.50
2023-01-20T12:35:02.746Z,100444.66
2023-01-20T12:37:30.646Z,100444.66
2023-01-20T12:39:58.440Z,100444.13
2023-01-20T12:42:26.262Z,100455.38
2023-01-20T12:44:54.201Z,100455.22
2023-01-20T12:47:22.039Z,100454.56
2023-01-20T12:49:49.861Z,100454.91
2023-01-20T12:52:17.751Z,100455.75
2023-01-20T12:54:48.783Z,100466.63
2023-01-20T12:57:16.982Z,100463.25
2023-01-20T12:59:44.720Z,100463.59
2023-01-20T13:02:12.472Z,100469.03
2023-01-20T13:04:40.235Z,100469.03
2023-01-20T13:07:08.080Z,100472.94
2023-01-20T13:09:35.824Z,100480.25
2023-01-20T13:12:03.690Z,100481.09
2023-01-20T13:14:31.932Z,100474.63
2023-01-20T13:16:59.798Z,100484.66
2023-01-20T13:19:27.617Z,100483.13
2023-01-20T13:22:07.221Z,100486.91
2023-01-20T13:24:35.819Z,100492.34
2023-01-20T13:27:03.676Z,100497.25
2023-01-20T13:29:31.459Z,100498.97
2023-01-20T13:31:59.550Z,100495.03
2023-01-20T13:34:27.699Z,100497.59
2023-01-20T13:36:55.504Z,100508.13
2023-01-20T13:39:25.453Z,100509.44
2023-01-20T13:41:53.458Z,100516.91
2023-01-20T13:44:21.473Z,100511.47
2023-01-20T13:46:49.204Z,100520.28
2023-01-20T13:49:16.968Z,100522.84
2023-01-20T13:51:45.043Z,100517.22
2023-01-20T13:54:12.821Z,100527.44
2023-01-20T13:56:40.576Z,100523.00
2023-01-20T13:59:08.310Z,100529.31
2023-01-20T14:01:39.444Z,100530.16
2023-01-20T14:04:07.315Z,100528.97
2023-01-20T14:06:37.275Z,100526.91
2023-01-20T14:09:07.874Z,100536.94
2023-01-20T14:11:37.066Z,100533.19
2023-01-20T14:14:05.672Z,100535.56
2023-01-20T14:16:33.436Z,100533.69
2023-01-20T14:19:01.763Z,100537.25
2023-01-20T14:21:29.687Z,100543.38
2023-01-20T14:24:00.494Z,100548.81
2023-01-20T14:26:28.256Z,100545.25
2023-01-20T14:28:56.024Z,100548.81
2023-01-20T14:31:23.961Z,100550.53
2023-01-20T14:33:51.792Z,100551.16
2023-01-20T14:36:19.556Z,100552.22
2023-01-20T14:38:56.947Z,100558.34
2023-01-20T14:41:25.268Z,100559.19
2023-01-20T14:43:53.057Z,100557.13
2023-01-20T14:46:20.874Z,100564.09
2023-01-20T14:48:48.694Z,100562.59
2023-01-20T14:51:16.507Z,100569.88
2023-01-20T14:53:44.221Z,100567.06
2023-01-20T14:56:12.033Z,100566.16
2023-01-20T14:58:39.763Z,100572.53
2023-01-20T15:01:07.527Z,100575.66
2023-01-20T15:03:35.293Z,100578.88
2023-01-20T15:06:03.100Z,100587.13
2023-01-20T15:08:30.996Z,100587.03
2023-01-20T15:10:58.783Z,100593.25
2023-01-20T15:13:26.504Z,100605.13
2023-01-20T15:15:54.256Z,100607.47
2023-01-20T15:18:22.298Z,100611.13
2023-01-20T15:20:50.043Z,100606.28
2023-01-20T15:23:17.963Z,100617.59
2023-01-20T15:25:45.729Z,100622.19
2023-01-20T15:28:13.485Z,100631.53
2023-01-20T15:30:41.258Z,100627.41
2023-01-20T15:33:08.972Z,100636.34
2023-01-20T15:35:36.700Z,100636.53
2023-01-20T15:38:04.455Z,100643.72
2023-01-20T15:40:32.219Z,100646.47
2023-01-20T15:43:00.064Z,100640.28
2023-01-20T15:45:27.820Z,100643.66
2023-01-20T15:47:56.186Z,100647.19
2023-01-20T15:50:24.411Z,100647.38
2023-01-20T15:52:52.129Z,100647.84
2023-01-20T15:55:19.858Z,100659.84
2023-01-20T15:57:47.825Z,100655.47
2023-01-20T16:00:15.875Z,100658.34
2023-01-20T16:02:43.742Z,100655.91
2023-01-20T16:05:15.235Z,100663.84
2023-01-20T16:07:44.329Z,100671.88
2023-01-20T16:10:12.087Z,100668.13
2023-01-20T16:12:39.935Z,100682.47
2023-01-20T16:15:07.648Z,100683.72
2023-01-20T16:17:35.383Z,100691.91
2023-01-20T16:20:03.283Z,100686.53
2023-01-20T16:22:31.056Z,100690.50
2023-01-20T16:24:58.774Z,100697.34
2023-01-20T16:27:26.630Z,100695.53
2023-01-20T16:29:55.949Z,100695.63
2023-01-20T16:32:24.356Z,100706.06
2023-01-20T16:34:52.080Z,100708.25
2023-01-20T16:37:19.852Z,100707.59
2023-01-20T16:39:47.859Z,100712.16
2023-01-20T16:42:15.636Z,100715.00
2023-01-20T16:44:43.355Z,100725.97
2023-01-20T16:47:11.094Z,100728.69
2023-01-20T16:49:39.476Z,100729.31
2023-01-20T16:52:07.200Z,100726.78
2023-01-20T16:54:35.026Z,100734.84
2023-01-20T16:57:02.868Z,100733.56
2023-01-20T16:59:30.632Z,100741.19
2023-01-20T17:01:58.780Z,100739.50
2023-01-20T17:04:26.749Z,100739.50
2023-01-20T17:06:54.743Z,100741.63
2023-01-20T17:09:22.489Z,100748.81
2023-01-20T17:11:50.220Z,100749.44
2023-01-20T17:14:18.024Z,100758.94
2023-01-20T17:16:45.898Z,100761.69
2023-01-20T17:19:16.104Z,100761.91
2023-01-20T17:21:45.251Z,100763.16
2023-01-20T17:24:13.364Z,100769.75
2023-01-20T17:26:41.833Z,100774.13
2023-01-20T17:29:09.678Z,100777.25
2023-01-20T17:31:37.734Z,100787.38
2023-01-20T17:34:05.708Z,100782.38
2023-01-20T17:36:34.804Z,100783.25
2023-01-20T17:39:02.852Z,100792.13
2023-01-20T17:41:30.817Z,100787.31
2023-01-20T17:43:58.762Z,100788.41
2023-01-20T17:46:27.731Z,100792.16
2023-01-20T17:48:55.458Z,100796.63
2023-01-20T17:51:23.562Z,100794.41
2023-01-20T17:53:51.697Z,100808.50
2023-01-20T17:56:24.306Z,100809.00
2023-01-20T17:58:52.200Z,100814.72
2023-01-20T18:01:20.137Z,100814.19
2023-01-20T18:03:47.937Z,100812.31
2023-01-20T18:06:15.922Z,100809.53
2023-01-20T18:08:43.792Z,100811.03
2023-01-20T18:11:11.577Z,100808.50
2023-01-20T18:13:39.391Z,100814.84
2023-01-20T18:16:07.629Z,100815.06
2023-01-20T18:18:35.636Z,100822.59
2023-01-20T18:21:03.442Z,100823.03
2023-01-20T18:23:31.824Z,100819.81
2023-01-20T18:25:59.578Z,100829.41
2023-01-20T18:28:27.873Z,100824.91
2023-01-20T18:30:55.784Z,100823.16
2023-01-20T18:33:23.625Z,100829.16
2023-01-20T18:35:51.603Z,100841.09
2023-01-20T18:38:19.566Z,100827.31
2023-01-20T18:40:47.437Z,100830.81
2023-01-20T18:43:15.390Z,100838.84
2023-01-20T18:45:43.195Z,100845.00
2023-01-20T18:48:11.137Z,100842.91
2023-01-20T18:50:40.035Z,100842.25
2023-01-20T18:53:07.771Z,100842.03
2023-01-20T18:55:35.597Z,100852.38
2023-01-20T18:58:03.821Z,100850.63
2023-01-20T19:00:31.716Z,100853.78
2023-01-20T19:03:00.884Z,100859.50
2023-01-20T19:05:28.619Z,100871.75
2023-01-20T19:07:56.406Z,100860.72
2023-01-20T19:10:24.166Z,100873.75
2023-01-20T19:12:51.913Z,100867.13
2023-01-20T19:15:19.682Z,100867.00
2023-01-20T19:17:47.440Z,100878.91
2023-01-20T19:20:17.906Z,100878.34
2023-01-20T19:22:45.909Z,100878.63
2023-01-20T19:25:13.828Z,100881.84
2023-01-20T19:27:41.605Z,100891.66
2023-01-20T19:30:10.275Z,100884.97
2023-01-20T19:32:38.109Z,100890.25
2023-01-20T19:35:05.859Z,100894.72
2023-01-20T19:37:33.659Z,100908.03
2023-01-20T19:40:01.494Z,100914.03
2023-01-20T19:42:29.311Z,100913.72
2023-01-20T19:44:57.125Z,100917.34
2023-01-20T19:47:25.036Z,100907.34
2023-01-20T19:49:52.822Z,100916.59
2023-01-20T19:52:20.594Z,100916.38
2023-01-20T19:54:50.350Z,100915.53
2023-01-20T19:57:19.654Z,100913.97
2023-01-20T19:59:47.418Z,100917.41
2023-01-20T20:02:15.195Z,100917.50
2023-01-20T20:04:42.901Z,100907.56
2023-01-20T20:07:10.704Z,100918.97
2023-01-20T20:09:38.480Z,100921.06
2023-01-20T20:12:07.896Z,100922.22
2023-01-20T20:14:35.649Z,100927.59
2023-01-20T20:17:03.427Z,100920.56
2023-01-20T20:19:31.167Z,100932.97
2023-01-20T20:21:58.935Z,100926.28
2023-01-20T20:24:26.691Z,100929.50
2023-01-20T20:26:54.496Z,100926.97
2023-01-20T20:29:22.178Z,100936.00
2023-01-20T20:31:50.518Z,100935.94
2023-01-20T20:34:18.445Z,100945.31
2023-01-20T20:36:46.203Z,100935.91
2023-01-20T20:39:13.940Z,100947.41
2023-01-20T20:41:42.209Z,100935.97
2023-01-20T20:44:09.949Z,100936.94
2023-01-20T20:46:37.783Z,100936.22
2023-01-20T20:49:05.484Z,100936.88
2023-01-20T20:51:33.293Z,100941.50
2023-01-20T20:54:01.052Z,100940.22
2023-01-20T20:56:31.883Z,100943.09
2023-01-20T20:59:03.488Z,100943.28
2023-01-20T21:01:33.078Z,100947.56
2023-01-20T21:04:01.027Z,100948.50
2023-01-20T21:06:28.750Z,100952.38
2023-01-20T21:08:56.545Z,100957.50
2023-01-20T21:11:24.987Z,100965.94
2023-01-20T21:13:52.841Z,100966.22
2023-01-20T21:16:23.124Z,100975.72
2023-01-20T21:18:52.033Z,100977.66
2023-01-20T21:21:20.393Z,100974.38
2023-01-20T21:23:51.792Z,100975.25
2023-01-20T21:26:19.631Z,100975.47
2023-01-20T21:28:49.287Z,100984.41
2023-01-20T21:31:17.231Z,100981.63
2023-01-20T21:33:45.843Z,100991.78
2023-01-20T21:36:13.672Z,100995.66
2023-01-20T21:38:42.978Z,101001.03
2023-01-20T21:41:11.036Z,101002.84
2023-01-20T21:43:56.482Z,101010.22
2023-01-20T21:46:24.395Z,101013.88
2023-01-20T21:49:09.911Z,101013.97
2023-01-20T21:51:55.046Z,101009.63
2023-01-20T21:54:22.766Z,101009.88
2023-01-20T21:56:50.577Z,101016.09
2023-01-20T21:59:18.329Z,101020.94
2023-01-20T22:01:46.075Z,101027.84
2023-01-20T22:04:13.966Z,101035.03
2023-01-20T22:06:41.744Z,101034.09
2023-01-20T22:09:09.667Z,101028.31
2023-01-20T22:11:37.431Z,101039.31
2023-01-20T22:14:05.216Z,101040.41
2023-01-20T22:16:33.211Z,101037.69
2023-01-20T22:19:01.044Z,101040.75
2023-01-20T22:21:29.589Z,101036.69
2023-01-20T22:23:57.353Z,101047.31
2023-01-20T22:26:25.054Z,101040.13
2023-01-20T22:28:52.835Z,101043.41
2023-01-20T22:31:23.469Z,101043.25
2023-01-20T22:33:51.708Z,101042.75
2023-01-20T22:36:19.453Z,101047.53
2023-01-20T22:38:47.316Z,101051.31
2023-01-20T22:41:15.264Z,101049.06
2023-01-20T22:43:44.186Z,101058.44
2023-01-20T22:46:12.006Z,101065.59
2023-01-20T22:48:39.810Z,101065.78
2023-01-20T22:51:07.506Z,101074.13
2023-01-20T22:53:35.280Z,101079.75
2023-01-20T22:56:03.380Z,101087.28
2023-01-20T22:58:31.085Z,101096.66
2023-01-20T23:00:58.937Z,101093.25
2023-01-20T23:03:26.685Z,101085.22
2023-01-20T23:05:54.375Z,101097.16
2023-01-20T23:08:22.149Z,101090.19
2023-01-20T23:10:49.864Z,101094.78
2023-01-20T23:13:17.605Z,101102.44
2023-01-20T23:15:45.331Z,101099.72
2023-01-20T23:18:13.222Z,101106.56
2023-01-20T23:20:40.981Z,101110.63
2023-01-20T23:23:10.682Z,101112.72
2023-01-20T23:25:38.428Z,101109.09
2023-01-20T23:28:06.177Z,101110.28
2023-01-20T23:30:33.925Z,101112.88
2023-01-20T23:33:01.653Z,101115.59
2023-01-20T23:35:29.415Z,101113.38
2023-01-20T23:37:57.092Z,101109.63
2023-01-20T23:40:26.101Z,101119.84
2023-01-20T23:42:53.846Z,101120.03
2023-01-20T23:45:21.551Z,101135.03
2023-01-20T23:47:49.278Z,101131.63
2023-01-20T23:50:17.428Z,101132.31
2023-01-20T23:52:45.344Z,101136.53
2023-01-20T23:55:13.091Z,101132.63
2023-01-20T23:57:40.792Z,101142.00
